createdAt,value
2019-02-27T00:00:16.085Z,1033.43
2019-02-27T00:01:17.761Z,1033.44
2019-02-27T00:02:17.069Z,1033.49
2019-02-27T00:03:17.444Z,1033.49
2019-02-27T00:04:16.049Z,1033.49
2019-02-27T00:05:17.913Z,1033.46
2019-02-27T00:06:17.318Z,1033.47
2019-02-27T00:07:16.181Z,1033.44
2019-02-27T00:08:16.599Z,1033.44
2019-02-27T00:09:16.563Z,1033.45
2019-02-27T00:10:16.384Z,1033.42
2019-02-27T00:11:15.925Z,1033.43
2019-02-27T00:12:20.097Z,1033.42
2019-02-27T00:13:16.294Z,1033.43
2019-02-27T00:14:16.653Z,1033.41
2019-02-27T00:15:16.632Z,1033.44
2019-02-27T00:16:16.060Z,1033.44
2019-02-27T00:17:18.923Z,1033.39
2019-02-27T00:18:17.078Z,1033.39
2019-02-27T00:19:16.275Z,1033.36
2019-02-27T00:20:16.263Z,1033.35
2019-02-27T00:21:16.097Z,1033.32
2019-02-27T00:22:18.529Z,1033.35
2019-02-27T00:23:16.589Z,1033.32
2019-02-27T00:24:16.331Z,1033.37
2019-02-27T00:25:16.381Z,1033.35
2019-02-27T00:26:16.529Z,1033.35
2019-02-27T00:27:17.281Z,1033.36
2019-02-27T00:28:17.835Z,1033.33
2019-02-27T00:29:18.011Z,1033.36
2019-02-27T00:30:16.502Z,1033.34
2019-02-27T00:31:17.047Z,1033.35
2019-02-27T00:32:19.317Z,1033.4
2019-02-27T00:33:16.660Z,1033.36
2019-02-27T00:34:16.923Z,1033.38
2019-02-27T00:35:16.501Z,1033.39
2019-02-27T00:36:17.248Z,1033.38
2019-02-27T00:37:19.658Z,1033.35
2019-02-27T00:38:16.124Z,1033.39
2019-02-27T00:39:16.207Z,1033.35
2019-02-27T00:40:16.424Z,1033.35
2019-02-27T00:41:16.647Z,1033.35
2019-02-27T00:42:23.093Z,1033.38
2019-02-27T00:43:15.892Z,1033.36
2019-02-27T00:44:16.336Z,1033.4
2019-02-27T00:45:16.393Z,1033.38
2019-02-27T00:46:16.058Z,1033.36
2019-02-27T00:47:20.856Z,1033.36
2019-02-27T00:48:16.706Z,1033.38
2019-02-27T00:49:17.102Z,1033.39
2019-02-27T00:50:16.578Z,1033.39
2019-02-27T00:51:16.911Z,1033.37
2019-02-27T00:52:18.949Z,1033.37
2019-02-27T00:53:16.111Z,1033.39
2019-02-27T00:54:16.458Z,1033.37
2019-02-27T00:55:16.766Z,1033.4
2019-02-27T00:56:16.215Z,1033.32
2019-02-27T00:57:25.027Z,1033.37
2019-02-27T00:58:16.526Z,1033.34
2019-02-27T00:59:16.079Z,1033.33
2019-02-27T01:00:16.266Z,1033.33
2019-02-27T01:01:16.077Z,1033.36
2019-02-27T01:02:20.966Z,1033.35
2019-02-27T01:03:16.197Z,1033.33
2019-02-27T01:04:16.290Z,1033.31
2019-02-27T01:05:16.597Z,1033.33
2019-02-27T01:06:17.024Z,1033.29
2019-02-27T01:07:21.615Z,1033.31
2019-02-27T01:08:16.412Z,1033.3
2019-02-27T01:09:16.190Z,1033.23
2019-02-27T01:10:16.220Z,1033.24
2019-02-27T01:11:19.082Z,1033.21
2019-02-27T01:12:15.859Z,1033.24
2019-02-27T01:13:17.151Z,1033.26
2019-02-27T01:14:16.675Z,1033.25
2019-02-27T01:15:17.881Z,1033.27
2019-02-27T01:16:17.993Z,1033.21
2019-02-27T01:17:16.245Z,1033.17
2019-02-27T01:18:16.021Z,1033.16
2019-02-27T01:19:16.428Z,1033.19
2019-02-27T01:20:18.033Z,1033.17
2019-02-27T01:21:20.178Z,1033.15
2019-02-27T01:22:16.384Z,1033.14
2019-02-27T01:23:16.434Z,1033.11
2019-02-27T01:24:18.170Z,1033.09
2019-02-27T01:25:16.373Z,1033.13
2019-02-27T01:26:16.439Z,1033.1
2019-02-27T01:27:16.874Z,1033.12
2019-02-27T01:28:16.434Z,1033.1
2019-02-27T01:29:18.904Z,1033.07
2019-02-27T01:30:17.073Z,1033.04
2019-02-27T01:31:16.469Z,1033.03
2019-02-27T01:32:16.387Z,1033.01
2019-02-27T01:33:17.107Z,1033.03
2019-02-27T01:34:16.899Z,1033.01
2019-02-27T01:35:19.157Z,1033.01
2019-02-27T01:36:16.999Z,1032.96
2019-02-27T01:37:16.005Z,1032.96
2019-02-27T01:38:16.301Z,1032.94
2019-02-27T01:39:16.337Z,1032.9
2019-02-27T01:40:18.815Z,1032.93
2019-02-27T01:41:17.781Z,1032.91
2019-02-27T01:42:16.125Z,1032.89
2019-02-27T01:43:15.961Z,1032.88
2019-02-27T01:44:16.279Z,1032.87
2019-02-27T01:45:21.887Z,1032.85
2019-02-27T01:46:16.100Z,1032.85
2019-02-27T01:47:15.969Z,1032.83
2019-02-27T01:48:16.520Z,1032.87
2019-02-27T01:49:17.027Z,1032.85
2019-02-27T01:50:16.079Z,1032.84
2019-02-27T01:51:15.955Z,1032.82
2019-02-27T01:52:16.482Z,1032.82
2019-02-27T01:53:16.234Z,1032.81
2019-02-27T01:54:16.021Z,1032.83
2019-02-27T01:55:16.636Z,1032.81
2019-02-27T01:56:16.941Z,1032.82
2019-02-27T01:57:16.516Z,1032.82
2019-02-27T01:58:16.431Z,1032.81
2019-02-27T01:59:18.013Z,1032.81
2019-02-27T02:00:16.049Z,1032.8
2019-02-27T02:01:16.429Z,1032.81
2019-02-27T02:02:15.936Z,1032.79
2019-02-27T02:03:16.417Z,1032.77
2019-02-27T02:04:20.927Z,1032.74
2019-02-27T02:05:16.185Z,1032.71
2019-02-27T02:06:17.637Z,1032.73
2019-02-27T02:07:16.430Z,1032.69
2019-02-27T02:08:16.008Z,1032.7
2019-02-27T02:09:16.084Z,1032.71
2019-02-27T02:10:16.277Z,1032.7
2019-02-27T02:11:16.137Z,1032.7
2019-02-27T02:12:17.198Z,1032.64
2019-02-27T02:13:16.073Z,1032.67
2019-02-27T02:14:15.861Z,1032.62
2019-02-27T02:15:16.387Z,1032.64
2019-02-27T02:16:17.312Z,1032.66
2019-02-27T02:17:17.074Z,1032.67
2019-02-27T02:18:16.484Z,1032.64
2019-02-27T02:19:15.886Z,1032.66
2019-02-27T02:20:16.104Z,1032.61
2019-02-27T02:21:16.363Z,1032.59
2019-02-27T02:22:17.770Z,1032.59
2019-02-27T02:23:16.238Z,1032.55
2019-02-27T02:24:16.300Z,1032.53
2019-02-27T02:25:16.117Z,1032.54
2019-02-27T02:26:16.230Z,1032.5
2019-02-27T02:27:16.042Z,1032.53
2019-02-27T02:28:16.160Z,1032.51
2019-02-27T02:29:21.049Z,1032.49
2019-02-27T02:30:16.277Z,1032.47
2019-02-27T02:31:16.707Z,1032.46
2019-02-27T02:32:18.434Z,1032.46
2019-02-27T02:33:16.914Z,1032.48
2019-02-27T02:34:16.427Z,1032.47
2019-02-27T02:35:16.331Z,1032.46
2019-02-27T02:36:17.052Z,1032.44
2019-02-27T02:37:16.758Z,1032.42
2019-02-27T02:38:17.290Z,1032.43
2019-02-27T02:39:19.508Z,1032.39
2019-02-27T02:40:16.079Z,1032.39
2019-02-27T02:41:15.936Z,1032.39
2019-02-27T02:42:16.762Z,1032.39
2019-02-27T02:43:15.994Z,1032.38
2019-02-27T02:44:22.165Z,1032.39
2019-02-27T02:45:16.409Z,1032.37
2019-02-27T02:46:17.318Z,1032.38
2019-02-27T02:47:21.572Z,1032.36
2019-02-27T02:48:16.151Z,1032.37
2019-02-27T02:49:16.225Z,1032.37
2019-02-27T02:50:18.666Z,1032.36
2019-02-27T02:51:16.044Z,1032.38
2019-02-27T02:52:16.092Z,1032.36
2019-02-27T02:53:16.004Z,1032.34
2019-02-27T02:54:16.442Z,1032.32
2019-02-27T02:55:16.152Z,1032.29
2019-02-27T02:56:16.239Z,1032.29
2019-02-27T02:57:16.028Z,1032.3
2019-02-27T02:58:16.403Z,1032.25
2019-02-27T02:59:15.883Z,1032.25
2019-02-27T03:00:16.162Z,1032.23
2019-02-27T03:01:16.776Z,1032.21
2019-02-27T03:02:16.320Z,1032.21
2019-02-27T03:03:16.224Z,1032.19
2019-02-27T03:04:16.380Z,1032.18
2019-02-27T03:05:16.041Z,1032.17
2019-02-27T03:06:16.005Z,1032.13
2019-02-27T03:07:16.659Z,1032.12
2019-02-27T03:08:21.160Z,1032.13
2019-02-27T03:09:16.351Z,1032.12
2019-02-27T03:10:15.873Z,1032.11
2019-02-27T03:11:19.534Z,1032.07
2019-02-27T03:12:16.295Z,1032.07
2019-02-27T03:13:16.098Z,1032.04
2019-02-27T03:14:18.735Z,1032.04
2019-02-27T03:15:15.937Z,1032.02
2019-02-27T03:16:16.218Z,1032.04
2019-02-27T03:17:19.474Z,1032
2019-02-27T03:18:16.243Z,1032.05
2019-02-27T03:19:15.981Z,1032.06
2019-02-27T03:20:17.912Z,1032.04
2019-02-27T03:21:17.127Z,1032.02
2019-02-27T03:22:16.032Z,1032.02
2019-02-27T03:23:16.652Z,1032.01
2019-02-27T03:24:17.132Z,1032.07
2019-02-27T03:25:16.063Z,1032.1
2019-02-27T03:26:18.001Z,1032.13
2019-02-27T03:27:16.017Z,1032.14
2019-02-27T03:28:16.668Z,1032.09
2019-02-27T03:29:17.613Z,1032.09
2019-02-27T03:30:19.066Z,1032.06
2019-02-27T03:31:19.679Z,1032.06
2019-02-27T03:32:17.787Z,1032.08
2019-02-27T03:33:27.400Z,1032.1
2019-02-27T03:34:16.084Z,1032.05
2019-02-27T03:35:17.870Z,1032.09
2019-02-27T03:36:16.446Z,1032.06
2019-02-27T03:37:16.373Z,1032.07
2019-02-27T03:38:16.055Z,1032.09
2019-02-27T03:39:16.075Z,1032.08
2019-02-27T03:40:15.970Z,1032.08
2019-02-27T03:41:23.808Z,1032.08
2019-02-27T03:42:16.142Z,1032.1
2019-02-27T03:43:16.076Z,1032.07
2019-02-27T03:44:21.715Z,1032.09
2019-02-27T03:45:16.216Z,1032.07
2019-02-27T03:46:16.838Z,1032.02
2019-02-27T03:47:17.251Z,1032.04
2019-02-27T03:48:16.357Z,1032.04
2019-02-27T03:49:16.245Z,1032.07
2019-02-27T03:50:16.133Z,1032.08
2019-02-27T03:51:16.664Z,1032.06
2019-02-27T03:52:16.282Z,1032.03
2019-02-27T03:53:15.967Z,1032.03
2019-02-27T03:54:22.298Z,1032.02
2019-02-27T03:55:15.933Z,1031.99
2019-02-27T03:56:16.166Z,1032.01
2019-02-27T03:57:20.578Z,1032.05
2019-02-27T03:58:16.139Z,1032.03
2019-02-27T03:59:15.858Z,1032.03
2019-02-27T04:00:19.581Z,1032.04
2019-02-27T04:01:17.074Z,1032.05
2019-02-27T04:02:16.005Z,1032.08
2019-02-27T04:03:18.802Z,1032.04
2019-02-27T04:04:16.232Z,1032.02
2019-02-27T04:05:15.874Z,1032.01
2019-02-27T04:06:21.734Z,1032.02
2019-02-27T04:07:16.131Z,1031.99
2019-02-27T04:08:16.995Z,1031.99
2019-02-27T04:09:20.267Z,1032
2019-02-27T04:10:16.286Z,1032.02
2019-02-27T04:11:16.501Z,1032.04
2019-02-27T04:12:17.537Z,1032.03
2019-02-27T04:13:16.000Z,1032.01
2019-02-27T04:14:16.207Z,1032.02
2019-02-27T04:15:19.072Z,1032.02
2019-02-27T04:16:16.549Z,1031.99
2019-02-27T04:17:16.008Z,1031.98
2019-02-27T04:18:16.175Z,1031.99
2019-02-27T04:19:16.370Z,1031.97
2019-02-27T04:20:16.066Z,1031.96
2019-02-27T04:21:16.124Z,1031.96
2019-02-27T04:22:16.478Z,1031.95
2019-02-27T04:23:16.210Z,1031.95
2019-02-27T04:24:23.336Z,1031.94
2019-02-27T04:25:16.427Z,1031.97
2019-02-27T04:26:15.972Z,1031.95
2019-02-27T04:27:21.511Z,1031.96
2019-02-27T04:28:16.400Z,1031.93
2019-02-27T04:29:16.350Z,1031.97
2019-02-27T04:30:17.898Z,1031.96
2019-02-27T04:31:16.110Z,1032.02
2019-02-27T04:32:16.344Z,1031.95
2019-02-27T04:33:24.357Z,1031.92
2019-02-27T04:34:17.934Z,1031.91
2019-02-27T04:35:16.434Z,1031.91
2019-02-27T04:36:16.146Z,1031.94
2019-02-27T04:37:21.137Z,1031.92
2019-02-27T04:38:15.962Z,1031.92
2019-02-27T04:39:16.236Z,1031.95
2019-02-27T04:40:16.379Z,1031.92
2019-02-27T04:41:18.783Z,1031.92
2019-02-27T04:42:16.403Z,1031.9
2019-02-27T04:43:16.217Z,1031.89
2019-02-27T04:44:16.230Z,1031.91
2019-02-27T04:45:17.915Z,1031.92
2019-02-27T04:46:16.156Z,1031.9
2019-02-27T04:47:16.279Z,1031.93
2019-02-27T04:48:15.980Z,1031.93
2019-02-27T04:49:16.122Z,1031.91
2019-02-27T04:50:16.446Z,1031.96
2019-02-27T04:51:17.808Z,1031.96
2019-02-27T04:52:17.000Z,1031.91
2019-02-27T04:53:16.066Z,1031.89
2019-02-27T04:54:16.968Z,1031.9
2019-02-27T04:55:16.368Z,1031.87
2019-02-27T04:56:17.210Z,1031.86
2019-02-27T04:57:16.174Z,1031.86
2019-02-27T04:58:16.359Z,1031.81
2019-02-27T04:59:19.433Z,1031.84
2019-02-27T05:00:16.075Z,1031.82
2019-02-27T05:01:16.233Z,1031.87
2019-02-27T05:02:16.013Z,1031.86
2019-02-27T05:03:17.300Z,1031.86
2019-02-27T05:04:16.074Z,1031.87
2019-02-27T05:05:16.376Z,1031.85
2019-02-27T05:06:16.873Z,1031.84
2019-02-27T05:07:20.980Z,1031.81
2019-02-27T05:08:15.951Z,1031.82
2019-02-27T05:09:16.218Z,1031.8
2019-02-27T05:10:16.102Z,1031.85
2019-02-27T05:11:16.200Z,1031.83
2019-02-27T05:12:16.629Z,1031.81
2019-02-27T05:13:21.534Z,1031.82
2019-02-27T05:14:17.343Z,1031.83
2019-02-27T05:15:16.381Z,1031.87
2019-02-27T05:16:17.742Z,1031.86
2019-02-27T05:17:16.341Z,1031.9
2019-02-27T05:18:16.351Z,1031.91
2019-02-27T05:19:16.269Z,1031.93
2019-02-27T05:20:15.999Z,1031.92
2019-02-27T05:21:19.849Z,1031.97
2019-02-27T05:22:18.100Z,1031.92
2019-02-27T05:23:16.092Z,1031.96
2019-02-27T05:24:16.183Z,1031.95
2019-02-27T05:25:16.218Z,1031.94
2019-02-27T05:26:16.511Z,1031.99
2019-02-27T05:27:16.242Z,1031.97
2019-02-27T05:28:16.073Z,1031.98
2019-02-27T05:29:17.853Z,1031.99
2019-02-27T05:30:15.866Z,1031.97
2019-02-27T05:31:19.308Z,1031.98
2019-02-27T05:32:18.331Z,1032.02
2019-02-27T05:33:16.269Z,1031.96
2019-02-27T05:34:16.723Z,1031.94
2019-02-27T05:35:16.302Z,1031.98
2019-02-27T05:36:17.314Z,1031.99
2019-02-27T05:37:16.646Z,1032.03
2019-02-27T05:38:16.010Z,1031.97
2019-02-27T05:39:18.135Z,1031.97
2019-02-27T05:40:16.012Z,1031.94
2019-02-27T05:41:15.967Z,1031.92
2019-02-27T05:42:16.217Z,1031.9
2019-02-27T05:43:15.911Z,1031.93
2019-02-27T05:44:16.258Z,1031.86
2019-02-27T05:45:16.438Z,1031.89
2019-02-27T05:46:16.256Z,1031.88
2019-02-27T05:47:16.399Z,1031.88
2019-02-27T05:48:20.658Z,1031.89
2019-02-27T05:49:17.783Z,1031.9
2019-02-27T05:50:16.031Z,1031.94
2019-02-27T05:51:16.721Z,1031.89
2019-02-27T05:52:16.061Z,1031.89
2019-02-27T05:53:16.018Z,1031.91
2019-02-27T05:54:16.110Z,1031.9
2019-02-27T05:55:16.042Z,1031.89
2019-02-27T05:56:16.639Z,1031.88
2019-02-27T05:57:16.420Z,1031.87
2019-02-27T05:58:17.092Z,1031.86
2019-02-27T05:59:17.365Z,1031.86
2019-02-27T06:00:16.239Z,1031.87
2019-02-27T06:01:16.158Z,1031.88
2019-02-27T06:02:16.367Z,1031.87
2019-02-27T06:03:19.125Z,1031.86
2019-02-27T06:04:18.335Z,1031.86
2019-02-27T06:05:17.880Z,1031.86
2019-02-27T06:06:16.125Z,1031.91
2019-02-27T06:07:19.770Z,1031.89
2019-02-27T06:08:16.513Z,1031.93
2019-02-27T06:09:16.449Z,1031.9
2019-02-27T06:10:23.639Z,1031.9
2019-02-27T06:11:16.622Z,1031.89
2019-02-27T06:12:17.728Z,1031.9
2019-02-27T06:13:16.638Z,1031.91
2019-02-27T06:14:16.081Z,1031.9
2019-02-27T06:15:16.298Z,1031.84
2019-02-27T06:16:16.402Z,1031.9
2019-02-27T06:17:15.969Z,1031.92
2019-02-27T06:18:16.132Z,1031.88
2019-02-27T06:19:16.270Z,1031.93
2019-02-27T06:20:17.710Z,1031.9
2019-02-27T06:21:16.821Z,1031.94
2019-02-27T06:22:16.928Z,1031.9
2019-02-27T06:23:15.773Z,1031.9
2019-02-27T06:24:15.856Z,1031.9
2019-02-27T06:25:24.109Z,1031.88
2019-02-27T06:26:16.220Z,1031.88
2019-02-27T06:27:16.288Z,1031.81
2019-02-27T06:28:19.509Z,1031.82
2019-02-27T06:29:16.546Z,1031.76
2019-02-27T06:30:16.914Z,1031.78
2019-02-27T06:31:16.106Z,1031.76
2019-02-27T06:32:16.141Z,1031.77
2019-02-27T06:33:16.735Z,1031.76
2019-02-27T06:34:15.758Z,1031.73
2019-02-27T06:35:16.348Z,1031.78
2019-02-27T06:36:16.430Z,1031.77
2019-02-27T06:37:16.185Z,1031.76
2019-02-27T06:38:16.120Z,1031.77
2019-02-27T06:39:16.054Z,1031.75
2019-02-27T06:40:18.678Z,1031.77
2019-02-27T06:41:16.457Z,1031.77
2019-02-27T06:42:17.047Z,1031.73
2019-02-27T06:43:16.547Z,1031.75
2019-02-27T06:44:19.266Z,1031.74
2019-02-27T06:45:16.100Z,1031.71
2019-02-27T06:46:20.870Z,1031.7
2019-02-27T06:47:16.240Z,1031.71
2019-02-27T06:48:16.385Z,1031.74
2019-02-27T06:49:18.470Z,1031.7
2019-02-27T06:50:17.827Z,1031.69
2019-02-27T06:51:16.142Z,1031.71
2019-02-27T06:52:15.977Z,1031.7
2019-02-27T06:53:16.738Z,1031.74
2019-02-27T06:54:19.082Z,1031.73
2019-02-27T06:55:16.175Z,1031.74
2019-02-27T06:56:16.254Z,1031.76
2019-02-27T06:57:15.963Z,1031.77
2019-02-27T06:58:16.172Z,1031.8
2019-02-27T06:59:18.505Z,1031.75
2019-02-27T07:00:16.495Z,1031.76
2019-02-27T07:01:16.285Z,1031.77
2019-02-27T07:02:16.099Z,1031.75
2019-02-27T07:03:15.888Z,1031.77
2019-02-27T07:04:17.228Z,1031.75
2019-02-27T07:05:16.618Z,1031.73
2019-02-27T07:06:16.326Z,1031.69
2019-02-27T07:07:16.002Z,1031.72
2019-02-27T07:08:16.969Z,1031.69
2019-02-27T07:09:16.125Z,1031.69
2019-02-27T07:10:20.764Z,1031.65
2019-02-27T07:11:16.367Z,1031.67
2019-02-27T07:12:16.465Z,1031.66
2019-02-27T07:13:17.830Z,1031.65
2019-02-27T07:14:15.703Z,1031.63
2019-02-27T07:15:15.786Z,1031.61
2019-02-27T07:16:16.065Z,1031.64
2019-02-27T07:17:16.462Z,1031.6
2019-02-27T07:18:16.106Z,1031.59
2019-02-27T07:19:16.621Z,1031.62
2019-02-27T07:20:15.880Z,1031.58
2019-02-27T07:21:16.087Z,1031.56
2019-02-27T07:22:16.195Z,1031.57
2019-02-27T07:23:16.320Z,1031.56
2019-02-27T07:24:16.656Z,1031.52
2019-02-27T07:25:17.041Z,1031.53
2019-02-27T07:26:17.709Z,1031.47
2019-02-27T07:27:16.133Z,1031.53
2019-02-27T07:28:15.963Z,1031.48
2019-02-27T07:29:28.004Z,1031.51
2019-02-27T07:30:16.171Z,1031.51
2019-02-27T07:31:18.635Z,1031.54
2019-02-27T07:32:17.714Z,1031.53
2019-02-27T07:33:15.909Z,1031.52
2019-02-27T07:34:15.724Z,1031.55
2019-02-27T07:35:15.800Z,1031.59
2019-02-27T07:36:16.306Z,1031.61
2019-02-27T07:37:16.265Z,1031.65
2019-02-27T07:38:16.573Z,1031.65
2019-02-27T07:39:15.946Z,1031.59
2019-02-27T07:40:16.158Z,1031.63
2019-02-27T07:41:21.164Z,1031.62
2019-02-27T07:42:15.650Z,1031.62
2019-02-27T07:43:15.799Z,1031.66
2019-02-27T07:44:15.837Z,1031.68
2019-02-27T07:45:15.714Z,1031.68
2019-02-27T07:46:15.839Z,1031.7
2019-02-27T07:47:16.108Z,1031.72
2019-02-27T07:48:17.112Z,1031.71
2019-02-27T07:49:17.357Z,1031.7
2019-02-27T07:50:16.011Z,1031.74
2019-02-27T07:51:16.440Z,1031.72
2019-02-27T07:52:16.052Z,1031.72
2019-02-27T07:53:18.401Z,1031.74
2019-02-27T07:54:15.986Z,1031.73
2019-02-27T07:55:26.044Z,1031.76
2019-02-27T07:56:16.285Z,1031.73
2019-02-27T07:57:15.977Z,1031.7
2019-02-27T07:58:16.216Z,1031.72
2019-02-27T07:59:15.826Z,1031.72
2019-02-27T08:00:16.584Z,1031.67
2019-02-27T08:01:16.443Z,1031.7
2019-02-27T08:02:16.395Z,1031.7
2019-02-27T08:03:17.100Z,1031.69
2019-02-27T08:04:22.906Z,1031.71
2019-02-27T08:05:16.212Z,1031.72
2019-02-27T08:06:15.957Z,1031.68
2019-02-27T08:07:16.434Z,1031.68
2019-02-27T08:08:16.012Z,1031.67
2019-02-27T08:09:17.867Z,1031.67
2019-02-27T08:10:16.209Z,1031.65
2019-02-27T08:11:17.194Z,1031.65
2019-02-27T08:12:20.873Z,1031.65
2019-02-27T08:13:16.093Z,1031.63
2019-02-27T08:14:16.225Z,1031.65
2019-02-27T08:15:15.894Z,1031.66
2019-02-27T08:16:16.832Z,1031.68
2019-02-27T08:17:18.094Z,1031.72
2019-02-27T08:18:16.327Z,1031.72
2019-02-27T08:19:16.006Z,1031.76
2019-02-27T08:20:21.346Z,1031.74
2019-02-27T08:21:15.939Z,1031.75
2019-02-27T08:22:16.265Z,1031.75
2019-02-27T08:23:16.039Z,1031.76
2019-02-27T08:24:16.093Z,1031.76
2019-02-27T08:25:16.260Z,1031.78
2019-02-27T08:26:15.931Z,1031.75
2019-02-27T08:27:16.176Z,1031.78
2019-02-27T08:28:16.403Z,1031.77
2019-02-27T08:29:16.700Z,1031.74
2019-02-27T08:30:17.724Z,1031.73
2019-02-27T08:31:16.521Z,1031.73
2019-02-27T08:32:16.885Z,1031.74
2019-02-27T08:33:16.356Z,1031.78
2019-02-27T08:34:16.336Z,1031.7
2019-02-27T08:35:16.969Z,1031.69
2019-02-27T08:36:16.551Z,1031.72
2019-02-27T08:37:15.975Z,1031.72
2019-02-27T08:38:16.312Z,1031.72
2019-02-27T08:39:16.248Z,1031.75
2019-02-27T08:40:15.966Z,1031.74
2019-02-27T08:41:16.382Z,1031.7
2019-02-27T08:42:16.210Z,1031.66
2019-02-27T08:43:16.094Z,1031.65
2019-02-27T08:44:16.184Z,1031.68
2019-02-27T08:45:20.824Z,1031.66
2019-02-27T08:46:16.547Z,1031.6
2019-02-27T08:47:17.818Z,1031.67
2019-02-27T08:48:18.261Z,1031.65
2019-02-27T08:49:16.253Z,1031.64
2019-02-27T08:50:17.828Z,1031.64
2019-02-27T08:51:15.680Z,1031.65
2019-02-27T08:52:16.475Z,1031.65
2019-02-27T08:53:16.256Z,1031.61
2019-02-27T08:54:16.065Z,1031.63
2019-02-27T08:55:22.997Z,1031.62
2019-02-27T08:56:16.248Z,1031.62
2019-02-27T08:57:16.727Z,1031.6
2019-02-27T08:58:17.280Z,1031.57
2019-02-27T08:59:16.431Z,1031.53
2019-02-27T09:00:16.237Z,1031.53
2019-02-27T09:01:16.231Z,1031.52
2019-02-27T09:02:16.205Z,1031.49
2019-02-27T09:03:21.039Z,1031.49
2019-02-27T09:04:16.051Z,1031.44
2019-02-27T09:05:21.199Z,1031.47
2019-02-27T09:06:18.848Z,1031.42
2019-02-27T09:07:16.167Z,1031.44
2019-02-27T09:08:16.225Z,1031.42
2019-02-27T09:09:18.822Z,1031.42
2019-02-27T09:10:16.680Z,1031.4
2019-02-27T09:11:16.029Z,1031.36
2019-02-27T09:12:16.077Z,1031.24
2019-02-27T09:13:16.711Z,1031.35
2019-02-27T09:14:16.765Z,1031.35
2019-02-27T09:15:16.050Z,1031.38
2019-02-27T09:16:16.103Z,1031.38
2019-02-27T09:17:16.556Z,1031.38
2019-02-27T09:18:15.989Z,1031.34
2019-02-27T09:19:16.410Z,1031.33
2019-02-27T09:20:20.849Z,1031.33
2019-02-27T09:21:17.392Z,1031.32
2019-02-27T09:22:16.058Z,1031.34
2019-02-27T09:23:18.432Z,1031.29
2019-02-27T09:24:16.111Z,1031.3
2019-02-27T09:25:16.235Z,1031.27
2019-02-27T09:26:16.167Z,1031.26
2019-02-27T09:27:16.118Z,1031.27
2019-02-27T09:28:16.094Z,1031.27
2019-02-27T09:29:19.375Z,1031.24
2019-02-27T09:30:16.212Z,1031.28
2019-02-27T09:31:16.219Z,1031.26
2019-02-27T09:32:16.724Z,1031.32
2019-02-27T09:33:21.052Z,1031.26
2019-02-27T09:34:16.202Z,1031.32
2019-02-27T09:35:17.643Z,1031.28
2019-02-27T09:36:16.163Z,1031.29
2019-02-27T09:37:17.919Z,1031.32
2019-02-27T09:38:16.265Z,1031.31
2019-02-27T09:39:16.080Z,1031.31
2019-02-27T09:40:16.583Z,1031.31
2019-02-27T09:41:16.903Z,1031.29
2019-02-27T09:42:19.877Z,1031.28
2019-02-27T09:43:15.993Z,1031.23
2019-02-27T09:44:15.674Z,1031.19
2019-02-27T09:45:15.742Z,1031.18
2019-02-27T09:46:20.214Z,1031.1
2019-02-27T09:47:15.746Z,1031.09
2019-02-27T09:48:15.792Z,1031.06
2019-02-27T09:49:16.058Z,1031.02
2019-02-27T09:50:16.460Z,1030.99
2019-02-27T09:51:16.000Z,1030.99
2019-02-27T09:52:15.976Z,1030.92
2019-02-27T09:53:16.066Z,1030.93
2019-02-27T09:54:16.028Z,1030.95
2019-02-27T09:55:20.993Z,1030.95
2019-02-27T09:56:16.157Z,1030.89
2019-02-27T09:57:16.245Z,1030.9
2019-02-27T09:58:16.105Z,1030.86
2019-02-27T09:59:20.443Z,1030.83
2019-02-27T10:00:15.969Z,1030.83
2019-02-27T10:01:15.939Z,1030.8
2019-02-27T10:02:17.772Z,1030.74
2019-02-27T10:03:21.717Z,1030.7
2019-02-27T10:04:16.942Z,1030.72
2019-02-27T10:05:16.217Z,1030.75
2019-02-27T10:06:16.159Z,1030.74
2019-02-27T10:07:18.010Z,1030.71
2019-02-27T10:08:16.200Z,1030.68
2019-02-27T10:09:16.642Z,1030.63
2019-02-27T10:10:16.749Z,1030.64
2019-02-27T10:11:22.400Z,1030.61
2019-02-27T10:12:16.407Z,1030.57
2019-02-27T10:13:16.207Z,1030.56
2019-02-27T10:14:17.786Z,1030.56
2019-02-27T10:15:16.172Z,1030.52
2019-02-27T10:16:16.332Z,1030.51
2019-02-27T10:17:16.240Z,1030.49
2019-02-27T10:18:22.288Z,1030.42
2019-02-27T10:19:17.309Z,1030.42
2019-02-27T10:20:17.830Z,1030.36
2019-02-27T10:21:16.136Z,1030.36
2019-02-27T10:22:21.292Z,1030.42
2019-02-27T10:23:16.622Z,1030.4
2019-02-27T10:24:16.044Z,1030.38
2019-02-27T10:25:17.713Z,1030.42
2019-02-27T10:26:22.761Z,1030.4
2019-02-27T10:27:16.111Z,1030.37
2019-02-27T10:28:16.214Z,1030.35
2019-02-27T10:29:16.315Z,1030.34
2019-02-27T10:30:17.735Z,1030.32
2019-02-27T10:31:16.160Z,1030.31
2019-02-27T10:32:16.050Z,1030.28
2019-02-27T10:33:16.328Z,1030.26
2019-02-27T10:34:18.408Z,1030.27
2019-02-27T10:35:16.079Z,1030.22
2019-02-27T10:36:16.615Z,1030.22
2019-02-27T10:37:19.299Z,1030.19
2019-02-27T10:38:17.667Z,1030.2
2019-02-27T10:39:15.906Z,1030.16
2019-02-27T10:40:16.095Z,1030.15
2019-02-27T10:41:17.658Z,1030.19
2019-02-27T10:42:16.164Z,1030.16
2019-02-27T10:43:15.697Z,1030.16
2019-02-27T10:44:17.623Z,1030.14
2019-02-27T10:45:16.134Z,1030.18
2019-02-27T10:46:16.044Z,1030.15
2019-02-27T10:47:17.079Z,1030.19
2019-02-27T10:48:16.989Z,1030.14
2019-02-27T10:49:22.512Z,1030.13
2019-02-27T10:50:16.170Z,1030.14
2019-02-27T10:51:16.153Z,1030.13
2019-02-27T10:52:16.031Z,1030.1
2019-02-27T10:53:17.706Z,1030.08
2019-02-27T10:54:16.148Z,1030.06
2019-02-27T10:55:16.203Z,1030.1
2019-02-27T10:56:16.637Z,1030.02
2019-02-27T10:57:16.294Z,1030.05
2019-02-27T10:58:16.703Z,1030.04
2019-02-27T10:59:16.213Z,1030.05
2019-02-27T11:00:15.915Z,1030.03
2019-02-27T11:01:16.256Z,1029.99
2019-02-27T11:02:17.701Z,1029.97
2019-02-27T11:03:16.288Z,1029.94
2019-02-27T11:04:16.397Z,1029.94
2019-02-27T11:05:18.482Z,1029.93
2019-02-27T11:06:16.305Z,1029.93
2019-02-27T11:07:16.925Z,1029.88
2019-02-27T11:08:15.866Z,1029.85
2019-02-27T11:09:15.955Z,1029.82
2019-02-27T11:10:16.833Z,1029.78
2019-02-27T11:11:16.750Z,1029.77
2019-02-27T11:12:17.554Z,1029.74
2019-02-27T11:13:15.988Z,1029.73
2019-02-27T11:14:16.136Z,1029.74
2019-02-27T11:15:16.309Z,1029.72
2019-02-27T11:16:22.146Z,1029.7
2019-02-27T11:17:17.702Z,1029.69
2019-02-27T11:18:16.303Z,1029.67
2019-02-27T11:19:17.330Z,1029.62
2019-02-27T11:20:23.934Z,1029.62
2019-02-27T11:21:15.952Z,1029.55
2019-02-27T11:22:17.200Z,1029.52
2019-02-27T11:23:16.749Z,1029.5
2019-02-27T11:24:17.460Z,1029.47
2019-02-27T11:25:16.309Z,1029.44
2019-02-27T11:26:16.036Z,1029.41
2019-02-27T11:27:17.070Z,1029.42
2019-02-27T11:28:16.049Z,1029.39
2019-02-27T11:29:16.275Z,1029.36
2019-02-27T11:30:16.009Z,1029.37
2019-02-27T11:31:17.665Z,1029.37
2019-02-27T11:32:16.865Z,1029.31
2019-02-27T11:33:26.241Z,1029.32
2019-02-27T11:34:16.814Z,1029.27
2019-02-27T11:35:16.061Z,1029.28
2019-02-27T11:36:16.232Z,1029.26
2019-02-27T11:37:17.442Z,1029.23
2019-02-27T11:38:16.127Z,1029.21
2019-02-27T11:39:16.337Z,1029.21
2019-02-27T11:40:15.942Z,1029.21
2019-02-27T11:41:16.074Z,1029.21
2019-02-27T11:42:15.709Z,1029.22
2019-02-27T11:43:17.393Z,1029.23
2019-02-27T11:44:16.156Z,1029.22
2019-02-27T11:45:16.180Z,1029.23
2019-02-27T11:46:16.176Z,1029.19
2019-02-27T11:47:16.017Z,1029.19
2019-02-27T11:48:15.835Z,1029.17
2019-02-27T11:49:16.327Z,1029.13
2019-02-27T11:50:18.853Z,1029.16
2019-02-27T11:51:20.871Z,1029.06
2019-02-27T11:52:16.105Z,1029.06
2019-02-27T11:53:15.972Z,1029.01
2019-02-27T11:54:16.054Z,1028.99
2019-02-27T11:55:16.943Z,1028.97
2019-02-27T11:56:16.105Z,1028.96
2019-02-27T11:57:15.946Z,1029
2019-02-27T11:58:16.401Z,1028.98
2019-02-27T11:59:16.922Z,1028.99
2019-02-27T12:00:21.385Z,1028.96
2019-02-27T12:01:15.984Z,1028.97
2019-02-27T12:02:16.282Z,1028.97
2019-02-27T12:03:16.041Z,1028.98
2019-02-27T12:04:20.183Z,1028.97
2019-02-27T12:05:16.018Z,1028.95
2019-02-27T12:06:15.662Z,1028.91
2019-02-27T12:07:18.088Z,1028.93